Time;durP1;ratioP1;P1;durP2;ratioP2;P2;SDS_P1;SDS_P2;PMS_P1;PMS_P2;Temp;Humidity;BMP_temperature;BMP_pressure;BME280_temperature;BME280_humidity;BME280_pressure;Samples;Min_cycle;Max_cycle;Signal;HPM_P1;HPM_P2
2021/05/11 00:02:24;;;;;;;6.97;6.30;;;13.20;99.90;;;;;;5062234;28;20475;-84
2021/05/11 00:04:52;;;;;;;6.50;5.90;;;13.30;99.90;;;;;;5062628;28;20448;-82
2021/05/11 00:07:18;;;;;;;6.47;5.90;;;13.30;99.90;;;;;;5062042;28;20539;-82
2021/05/11 00:09:45;;;;;;;6.50;5.90;;;13.30;99.90;;;;;;5062592;28;20544;-82
2021/05/11 00:12:11;;;;;;;7.27;6.60;;;13.40;99.90;;;;;;5061514;28;20504;-82
2021/05/11 00:14:37;;;;;;;7.30;6.70;;;13.40;99.90;;;;;;5060901;28;20449;-81
2021/05/11 00:17:04;;;;;;;7.80;7.10;;;13.50;99.90;;;;;;5062443;28;20460;-80
2021/05/11 00:19:31;;;;;;;7.20;6.60;;;13.50;99.90;;;;;;5061693;28;20440;-82
2021/05/11 00:21:57;;;;;;;7.80;7.10;;;13.40;99.90;;;;;;5061773;28;20554;-82
2021/05/11 00:24:23;;;;;;;7.20;6.50;;;13.40;99.90;;;;;;5063680;28;20495;-79
2021/05/11 00:26:50;;;;;;;9.67;7.43;;;13.50;99.90;;;;;;5074561;28;20496;-80
2021/05/11 00:29:16;;;;;;;9.90;7.57;;;13.50;99.90;;;;;;5074865;28;20440;-79
2021/05/11 00:31:42;;;;;;;9.03;8.10;;;13.30;99.90;;;;;;5071738;28;20474;-82
2021/05/11 00:34:09;;;;;;;8.30;7.13;;;13.30;99.90;;;;;;5063884;28;20445;-83
2021/05/11 00:36:36;;;;;;;10.37;8.20;;;13.30;99.90;;;;;;5061139;28;20961;-83
2021/05/11 00:39:04;;;;;;;8.43;7.53;;;13.30;99.90;;;;;;5061805;28;20462;-80
2021/05/11 00:41:31;;;;;;;10.37;8.60;;;13.10;99.90;;;;;;5062237;28;20549;-81
2021/05/11 00:43:57;;;;;;;10.37;8.50;;;13.00;99.90;;;;;;5061616;28;20494;-82
2021/05/11 00:46:25;;;;;;;9.73;8.70;;;13.00;99.90;;;;;;5069140;28;20454;-81
2021/05/11 00:48:51;;;;;;;10.63;9.53;;;13.10;99.90;;;;;;5071428;28;20869;-79
2021/05/11 00:51:18;;;;;;;10.07;7.60;;;13.10;99.90;;;;;;5070915;28;20468;-81
2021/05/11 00:53:45;;;;;;;9.43;8.07;;;13.00;99.90;;;;;;5063417;28;20452;-82
2021/05/11 00:56:12;;;;;;;8.00;6.70;;;13.00;99.90;;;;;;5063569;28;20475;-82
2021/05/11 00:58:39;;;;;;;8.90;7.53;;;13.00;99.90;;;;;;5063407;28;20466;-82
2021/05/11 01:01:05;;;;;;;10.00;7.53;;;13.10;99.90;;;;;;5063371;28;20468;-81
2021/05/11 01:03:32;;;;;;;9.17;7.43;;;13.20;99.90;;;;;;5062416;28;20490;-82
2021/05/11 01:05:58;;;;;;;10.70;7.73;;;13.30;99.90;;;;;;5062414;28;20456;-82
2021/05/11 01:08:24;;;;;;;8.20;7.40;;;13.30;99.90;;;;;;5063623;28;20448;-82
2021/05/11 01:10:52;;;;;;;9.23;8.33;;;13.30;99.90;;;;;;5063077;28;20586;-79
2021/05/11 01:13:18;;;;;;;9.30;7.60;;;13.30;99.90;;;;;;5067263;28;20450;-82
2021/05/11 01:15:48;;;;;;;8.10;7.10;;;13.30;99.90;;;;;;5071850;28;20444;-78
2021/05/11 01:18:24;;;;;;;8.10;7.40;;;13.30;99.90;;;;;;5072000;28;20452;-78
2021/05/11 01:20:51;;;;;;;7.83;6.67;;;13.30;99.90;;;;;;5071765;28;20531;-79
2021/05/11 01:23:50;;;;;;;6.03;5.40;;;13.20;99.90;;;;;;5072155;28;20507;-80
2021/05/11 01:26:23;;;;;;;7.33;6.07;;;13.30;99.90;;;;;;5071940;28;20467;-82
2021/05/11 01:28:56;;;;;;;7.13;6.00;;;13.40;99.90;;;;;;5072405;28;20456;-78
2021/05/11 01:31:43;;;;;;;7.80;6.47;;;13.40;99.90;;;;;;5071813;28;20499;-77
2021/05/11 01:48:10;;;;;;;9.57;7.53;;;13.40;99.90;;;;;;5072044;28;20429;-78
2021/05/11 01:50:41;;;;;;;7.37;6.60;;;13.40;99.90;;;;;;5071528;28;20494;-81
2021/05/11 01:56:08;;;;;;;7.83;7.07;;;13.10;99.90;;;;;;5070157;28;20451;-79
2021/05/11 02:23:48;;;;;;;9.40;7.60;;;12.50;99.90;;;;;;5071838;28;20478;-79
2021/05/11 02:26:15;;;;;;;9.73;7.83;;;12.50;99.90;;;;;;5071397;28;20448;-78
2021/05/11 02:28:42;;;;;;;6.50;5.90;;;12.40;99.90;;;;;;5071117;28;20531;-78
2021/05/11 02:31:08;;;;;;;8.00;7.20;;;12.40;99.90;;;;;;5064413;28;20476;-83
2021/05/11 02:33:34;;;;;;;10.17;7.97;;;12.30;99.90;;;;;;5065718;28;20902;-79
2021/05/11 02:36:01;;;;;;;12.33;11.03;;;12.30;99.90;;;;;;5068674;28;20458;-78
2021/05/11 02:38:27;;;;;;;13.13;9.77;;;12.30;99.90;;;;;;5073912;28;20445;-77
2021/05/11 02:40:53;;;;;;;10.07;7.27;;;12.20;99.90;;;;;;5075524;28;20527;-79
2021/05/11 02:43:24;;;;;;;12.13;8.60;;;12.20;99.90;;;;;;5075337;28;20472;-79
2021/05/11 02:45:52;;;;;;;8.97;7.80;;;12.20;99.90;;;;;;5074918;28;20462;-77
2021/05/11 02:48:18;;;;;;;16.80;10.60;;;12.20;99.90;;;;;;5074150;28;20872;-78
2021/05/11 02:50:44;;;;;;;15.33;9.70;;;12.10;99.90;;;;;;5074832;28;20475;-78
2021/05/11 02:53:10;;;;;;;14.97;8.87;;;12.10;99.90;;;;;;5075249;28;20447;-79
2021/05/11 02:55:37;;;;;;;16.40;12.80;;;12.10;99.90;;;;;;5075602;28;20462;-79
2021/05/11 02:58:03;;;;;;;14.43;11.73;;;12.00;99.90;;;;;;5074911;28;20463;-79
2021/05/11 03:00:29;;;;;;;12.43;10.20;;;12.10;99.90;;;;;;5075993;28;20446;-78
2021/05/11 03:02:57;;;;;;;10.83;9.63;;;12.10;99.90;;;;;;5074513;28;20562;-79
2021/05/11 03:05:24;;;;;;;13.30;9.60;;;12.10;99.90;;;;;;5074387;28;20440;-79
2021/05/11 03:07:50;;;;;;;13.33;8.73;;;12.20;99.90;;;;;;5074774;28;20524;-80
2021/05/11 03:10:18;;;;;;;16.97;11.20;;;12.20;99.90;;;;;;5073939;28;20447;-81
2021/05/11 03:12:44;;;;;;;16.50;12.10;;;12.10;99.90;;;;;;5069163;28;20455;-83
2021/05/11 03:15:12;;;;;;;14.53;10.70;;;12.00;99.90;;;;;;5065054;28;20447;-82
2021/05/11 03:17:39;;;;;;;16.70;11.60;;;12.00;99.90;;;;;;5064454;28;20541;-82
2021/05/11 03:20:08;;;;;;;16.43;10.70;;;11.90;99.90;;;;;;5072621;28;20455;-80
2021/05/11 03:22:35;;;;;;;15.67;10.03;;;12.00;99.90;;;;;;5073147;28;20475;-79
2021/05/11 03:25:02;;;;;;;14.10;10.90;;;12.00;99.90;;;;;;5073207;28;20452;-80
2021/05/11 03:27:29;;;;;;;13.80;9.97;;;12.00;99.90;;;;;;5073357;28;20440;-80
2021/05/11 03:29:55;;;;;;;16.70;11.20;;;12.00;99.90;;;;;;5073852;28;20461;-81
2021/05/11 03:32:21;;;;;;;15.77;10.53;;;12.00;99.90;;;;;;5072555;28;20471;-79
2021/05/11 03:34:47;;;;;;;14.60;11.40;;;12.10;99.90;;;;;;5073789;28;20447;-80
2021/05/11 03:37:14;;;;;;;13.80;11.03;;;12.10;99.90;;;;;;5072674;28;20473;-79
2021/05/11 03:39:42;;;;;;;12.83;10.60;;;12.10;99.90;;;;;;5073907;28;20488;-79
2021/05/11 03:42:13;;;;;;;11.77;8.77;;;12.10;99.90;;;;;;5072990;28;20475;-81
2021/05/11 03:44:42;;;;;;;14.37;10.90;;;12.00;99.90;;;;;;5074047;28;20551;-78
2021/05/11 03:47:08;;;;;;;14.50;9.90;;;12.00;99.90;;;;;;5074632;28;20447;-78
2021/05/11 03:49:34;;;;;;;14.23;12.00;;;12.00;99.90;;;;;;5074000;28;20558;-78
2021/05/11 03:52:01;;;;;;;18.37;13.43;;;12.20;99.90;;;;;;5073451;28;20516;-80
2021/05/11 03:54:28;;;;;;;18.60;12.47;;;12.20;99.90;;;;;;5065401;28;20547;-79
2021/05/11 03:56:54;;;;;;;17.37;11.30;;;12.20;99.90;;;;;;5067877;28;20430;-81
2021/05/11 03:59:22;;;;;;;15.70;10.03;;;12.30;99.90;;;;;;5063745;28;20444;-80
2021/05/11 04:01:48;;;;;;;17.30;12.97;;;12.30;99.90;;;;;;5063927;28;20494;-80
2021/05/11 04:04:14;;;;;;;19.20;11.20;;;12.30;99.90;;;;;;5063317;28;20575;-81
2021/05/11 04:06:44;;;;;;;19.60;13.30;;;12.30;99.90;;;;;;5063328;28;20463;-82
2021/05/11 04:09:15;;;;;;;15.80;11.23;;;12.40;99.90;;;;;;5063574;28;20961;-81
2021/05/11 04:12:03;;;;;;;20.60;11.80;;;12.40;99.90;;;;;;5063135;28;20477;-82
2021/05/11 04:17:14;;;;;;;18.17;12.07;;;12.50;99.90;;;;;;5063564;28;20493;-78
2021/05/11 04:19:40;;;;;;;16.63;10.50;;;12.50;99.90;;;;;;5062702;28;20466;-81
2021/05/11 04:22:07;;;;;;;13.17;9.93;;;12.60;99.90;;;;;;5062568;28;20475;-82
2021/05/11 04:24:33;;;;;;;14.07;10.33;;;12.60;99.90;;;;;;5062622;28;20498;-82
2021/05/11 04:27:00;;;;;;;13.70;11.07;;;12.60;99.90;;;;;;5063071;28;20494;-82
2021/05/11 04:29:28;;;;;;;17.10;11.50;;;12.60;99.90;;;;;;5063028;28;20447;-83
2021/05/11 04:31:54;;;;;;;18.97;12.50;;;12.70;99.90;;;;;;5061928;28;20484;-82
2021/05/11 04:34:20;;;;;;;15.03;10.23;;;12.70;99.90;;;;;;5062330;28;20452;-82
2021/05/11 04:36:46;;;;;;;15.80;11.50;;;12.70;99.90;;;;;;5062385;28;20455;-83
2021/05/11 04:39:13;;;;;;;17.87;13.50;;;12.70;99.90;;;;;;5062464;28;20497;-80
2021/05/11 04:41:39;;;;;;;17.93;13.90;;;12.70;99.90;;;;;;5062544;28;20472;-80
2021/05/11 04:44:07;;;;;;;16.43;11.17;;;12.90;99.90;;;;;;5066038;28;20483;-81
2021/05/11 04:46:43;;;;;;;19.13;13.40;;;13.00;99.90;;;;;;5066722;28;20458;-81
2021/05/11 04:49:10;;;;;;;16.87;12.80;;;12.90;99.90;;;;;;5071364;28;20482;-78
2021/05/11 04:51:36;;;;;;;19.47;13.10;;;12.90;99.90;;;;;;5071848;28;20475;-78
2021/05/11 04:54:03;;;;;;;18.27;12.50;;;12.80;99.90;;;;;;5072118;28;20447;-81
2021/05/11 04:56:29;;;;;;;15.27;12.97;;;12.90;99.90;;;;;;5071895;28;20440;-78
2021/05/11 04:58:55;;;;;;;18.40;13.67;;;13.00;99.90;;;;;;5071967;28;20523;-79
2021/05/11 05:01:22;;;;;;;20.00;12.90;;;13.10;99.90;;;;;;5069322;28;20529;-79
2021/05/11 05:03:52;;;;;;;16.43;12.70;;;13.00;99.90;;;;;;5065269;28;20515;-79
2021/05/11 05:06:18;;;;;;;19.03;12.83;;;12.90;99.90;;;;;;5063674;28;20502;-79
2021/05/11 05:08:45;;;;;;;22.63;15.23;;;13.00;99.90;;;;;;5062983;28;20459;-80
2021/05/11 05:11:11;;;;;;;17.57;12.87;;;13.10;99.90;;;;;;5061948;28;20475;-79
2021/05/11 05:13:37;;;;;;;15.70;11.80;;;13.00;99.90;;;;;;5060557;28;20953;-83
2021/05/11 05:16:04;;;;;;;20.00;14.40;;;13.00;99.90;;;;;;5057225;28;20494;-80
2021/05/11 05:18:33;;;;;;;20.13;14.37;;;12.90;99.90;;;;;;5058028;28;20465;-79
2021/05/11 05:20:59;;;;;;;19.67;14.60;;;13.00;99.90;;;;;;5063174;28;20538;-79
2021/05/11 05:23:31;;;;;;;19.30;12.90;;;13.10;99.90;;;;;;5062421;28;20535;-82
2021/05/11 05:26:02;;;;;;;15.90;11.87;;;13.20;99.90;;;;;;5072169;28;20448;-82
2021/05/11 05:28:28;;;;;;;16.00;12.13;;;13.20;99.90;;;;;;5071132;28;20452;-83
2021/05/11 05:30:54;;;;;;;17.33;12.13;;;13.00;99.90;;;;;;5061101;28;20476;-80
2021/05/11 05:33:30;;;;;;;15.37;11.30;;;13.00;99.90;;;;;;5059443;28;20475;-80
2021/05/11 05:35:57;;;;;;;13.60;12.20;;;13.00;99.90;;;;;;5058230;28;20448;-81
2021/05/11 05:38:23;;;;;;;15.00;11.57;;;13.00;99.90;;;;;;5056855;28;20455;-81
2021/05/11 05:40:56;;;;;;;14.90;10.47;;;13.10;99.90;;;;;;5056394;28;20472;-81
2021/05/11 05:43:23;;;;;;;11.73;10.50;;;13.10;99.90;;;;;;5057490;28;20493;-81
2021/05/11 05:45:52;;;;;;;15.77;9.90;;;12.90;99.90;;;;;;5057063;28;20467;-81
2021/05/11 05:48:18;;;;;;;14.00;11.40;;;13.10;99.90;;;;;;5057448;28;20483;-81
2021/05/11 05:50:47;;;;;;;16.73;13.07;;;13.10;99.90;;;;;;5056938;28;20532;-81
2021/05/11 05:53:15;;;;;;;16.30;10.53;;;12.90;99.90;;;;;;5055718;28;20962;-81
2021/05/11 05:55:42;;;;;;;14.03;11.87;;;13.10;99.90;;;;;;5055638;28;20487;-81
2021/05/11 05:58:08;;;;;;;14.47;11.50;;;13.20;99.90;;;;;;5055940;28;20875;-81
2021/05/11 06:00:34;;;;;;;10.33;8.93;;;13.30;99.90;;;;;;5055857;28;20458;-80
2021/05/11 06:03:16;;;;;;;11.27;8.37;;;13.40;99.90;;;;;;5055615;28;20919;-81
2021/05/11 06:05:43;;;;;;;9.83;6.80;;;13.50;99.90;;;;;;5056351;28;20464;-82
2021/05/11 06:08:10;;;;;;;9.13;7.67;;;13.40;99.90;;;;;;5055742;28;20448;-82
2021/05/11 06:10:36;;;;;;;8.80;7.50;;;13.50;99.90;;;;;;5056910;28;20452;-82
2021/05/11 06:13:07;;;;;;;7.90;7.17;;;13.60;99.90;;;;;;5055829;28;20448;-82
2021/05/11 06:18:19;;;;;;;11.90;10.50;;;13.70;99.90;;;;;;5056210;28;20450;-82
2021/05/11 06:20:49;;;;;;;10.57;9.17;;;13.80;99.90;;;;;;5056515;28;20472;-84
2021/05/11 06:23:18;;;;;;;12.27;11.07;;;13.90;99.90;;;;;;5057598;28;20480;-83
2021/05/11 06:25:45;;;;;;;11.67;9.83;;;13.90;99.90;;;;;;5057328;28;20460;-82
2021/05/11 06:28:12;;;;;;;13.67;10.37;;;14.00;99.90;;;;;;5056323;28;20460;-82
2021/05/11 06:30:38;;;;;;;12.93;10.77;;;14.00;99.90;;;;;;5056173;28;20575;-82
2021/05/11 06:33:05;;;;;;;12.57;10.73;;;14.00;99.90;;;;;;5056533;28;20455;-82
2021/05/11 06:35:33;;;;;;;11.40;10.00;;;14.00;99.90;;;;;;5056727;28;20606;-82
2021/05/11 06:38:00;;;;;;;12.10;10.90;;;13.90;99.90;;;;;;5056756;28;20456;-82
2021/05/11 06:40:28;;;;;;;14.80;11.17;;;13.90;99.90;;;;;;5057083;28;20444;-82
2021/05/11 06:42:57;;;;;;;12.67;10.80;;;13.80;99.90;;;;;;5064650;28;20449;-82
2021/05/11 06:46:05;;;;;;;12.37;9.80;;;13.80;99.90;;;;;;5065114;28;20441;-82
2021/05/11 06:48:34;;;;;;;13.53;11.13;;;13.80;99.90;;;;;;5067275;28;20453;-82
2021/05/11 06:53:47;;;;;;;15.70;14.03;;;13.80;99.90;;;;;;5034655;28;20434;-83
2021/05/11 06:56:15;;;;;;;14.27;11.20;;;14.00;99.90;;;;;;5065638;28;20440;-81
2021/05/11 06:58:41;;;;;;;11.73;10.57;;;14.10;99.90;;;;;;5071965;28;20472;-82
2021/05/11 07:01:08;;;;;;;15.23;12.07;;;14.10;99.90;;;;;;5064055;28;20464;-81
2021/05/11 07:03:34;;;;;;;12.80;11.20;;;14.20;99.90;;;;;;5059882;28;20514;-80
2021/05/11 07:06:01;;;;;;;12.87;11.57;;;14.20;99.90;;;;;;5063304;28;20722;-80
2021/05/11 07:08:32;;;;;;;14.47;11.90;;;14.20;99.90;;;;;;5063543;28;20479;-81
2021/05/11 07:11:02;;;;;;;16.53;10.30;;;14.20;99.90;;;;;;5064667;28;20675;-80
2021/05/11 07:13:28;;;;;;;15.27;12.77;;;14.40;99.90;;;;;;5066199;28;20448;-79
2021/05/11 07:15:56;;;;;;;12.60;11.27;;;14.50;99.90;;;;;;5066268;28;20452;-79
2021/05/11 07:18:23;;;;;;;13.80;10.30;;;14.50;99.90;;;;;;5062463;28;20464;-79
2021/05/11 07:20:55;;;;;;;11.40;10.30;;;14.60;99.90;;;;;;5062296;28;20481;-80
2021/05/11 07:23:21;;;;;;;14.47;11.43;;;14.50;99.90;;;;;;5055438;28;20555;-82
2021/05/11 07:25:56;;;;;;;10.70;9.57;;;14.60;99.90;;;;;;5050798;28;20454;-81
2021/05/11 07:31:14;;;;;;;12.80;10.33;;;14.70;99.90;;;;;;5071646;28;20452;-80
2021/05/11 07:33:43;;;;;;;13.37;10.33;;;14.70;99.90;;;;;;5071057;28;20448;-80
2021/05/11 07:36:10;;;;;;;12.37;11.10;;;14.70;99.90;;;;;;5072475;28;20451;-80
2021/05/11 07:38:37;;;;;;;15.10;12.37;;;14.80;99.90;;;;;;5072146;28;20447;-79
2021/05/11 07:41:03;;;;;;;15.07;11.53;;;14.80;99.90;;;;;;5071293;28;20512;-79
2021/05/11 07:43:31;;;;;;;14.40;10.90;;;14.80;99.90;;;;;;5071220;28;20548;-80
2021/05/11 07:46:17;;;;;;;13.00;10.73;;;14.70;99.90;;;;;;5071417;28;20452;-80
2021/05/11 08:05:22;;;;;;;10.07;8.97;;;15.40;99.90;;;;;;5062058;28;20496;-81
2021/05/11 08:15:54;;;;;;;8.43;7.43;;;15.30;99.90;;;;;;5107014;28;20425;-80
2021/05/11 08:18:30;;;;;;;8.43;7.50;;;15.30;99.90;;;;;;5105793;28;20857;-81
2021/05/11 08:29:06;;;;;;;10.70;6.80;;;15.60;99.90;;;;;;5096102;28;20440;-81
2021/05/11 08:31:32;;;;;;;10.07;8.73;;;15.60;99.90;;;;;;5096384;28;20536;-79
2021/05/11 08:33:59;;;;;;;8.90;8.00;;;15.40;99.90;;;;;;5092839;28;20534;-80
2021/05/11 08:36:26;;;;;;;8.23;7.43;;;15.40;99.90;;;;;;5088532;28;20508;-80
2021/05/11 08:38:53;;;;;;;9.23;8.13;;;15.40;99.90;;;;;;5090251;28;20451;-80
2021/05/11 08:41:20;;;;;;;8.77;7.60;;;15.50;99.90;;;;;;5089096;28;20535;-80
2021/05/11 08:43:46;;;;;;;8.43;7.57;;;15.60;99.90;;;;;;5086874;28;20546;-80
2021/05/11 08:46:13;;;;;;;7.03;6.40;;;15.70;99.90;;;;;;5086794;28;20482;-80
2021/05/11 08:48:39;;;;;;;10.70;8.03;;;15.70;99.90;;;;;;5085234;28;21057;-80
2021/05/11 08:51:09;;;;;;;8.47;7.10;;;15.80;99.90;;;;;;5086102;28;20476;-80
2021/05/11 08:54:05;;;;;;;7.47;6.10;;;15.90;99.90;;;;;;5088324;28;20443;-80
2021/05/11 09:04:57;;;;;;;5.50;4.97;;;16.30;99.90;;;;;;5084762;28;20525;-80
2021/05/11 09:27:24;;;;;;;4.87;4.37;;;16.60;99.90;;;;;;5071198;28;20444;-82
2021/05/11 09:30:03;;;;;;;5.00;4.53;;;16.90;99.90;;;;;;5078069;28;20461;-82
2021/05/11 09:32:40;;;;;;;6.90;5.20;;;17.20;99.90;;;;;;5078014;28;20849;-82
2021/05/11 09:57:30;;;;;;;5.50;5.00;;;18.50;99.90;;;;;;5078200;28;20431;-84
2021/05/11 10:48:36;;;;;;;6.90;6.30;;;19.00;99.10;;;;;;5083319;28;20426;-82
2021/05/11 10:51:05;;;;;;;7.70;7.10;;;19.00;99.20;;;;;;5077767;28;20556;-82
2021/05/11 10:53:44;;;;;;;9.27;7.43;;;19.10;99.20;;;;;;5079007;28;20561;-82
2021/05/11 10:56:47;;;;;;;7.90;7.20;;;19.00;98.80;;;;;;5078817;28;20468;-81
2021/05/11 10:59:21;;;;;;;6.27;5.67;;;19.00;98.90;;;;;;5018241;28;20460;-82
2021/05/11 11:01:50;;;;;;;8.13;7.27;;;19.00;99.10;;;;;;5019262;28;20585;-83
2021/05/11 11:04:19;;;;;;;10.10;8.47;;;19.00;99.00;;;;;;5053640;28;20502;-83
2021/05/11 11:07:07;;;;;;;8.73;7.53;;;19.00;99.20;;;;;;5082703;28;20455;-82
2021/05/11 11:09:34;;;;;;;9.23;8.37;;;19.20;99.00;;;;;;5084760;28;20450;-81
2021/05/11 11:12:02;;;;;;;10.50;9.40;;;19.30;99.00;;;;;;5089448;28;20470;-80
2021/05/11 11:14:36;;;;;;;8.97;8.07;;;19.20;98.30;;;;;;5090093;28;20451;-80
2021/05/11 11:17:04;;;;;;;9.13;8.23;;;19.30;98.50;;;;;;5088554;28;20442;-82
2021/05/11 11:19:31;;;;;;;9.90;8.97;;;19.20;98.20;;;;;;5087219;28;20911;-83
2021/05/11 11:23:33;;;;;;;9.50;8.60;;;19.10;98.30;;;;;;5087306;28;20570;-83
2021/05/11 11:24:50;;;;;;;10.13;7.93;;;19.10;98.40;;;;;;5093744;28;20478;-83
2021/05/11 11:27:24;;;;;;;9.70;8.80;;;19.00;99.00;;;;;;5093387;28;20480;-83
2021/05/11 11:29:59;;;;;;;9.20;8.40;;;19.10;98.80;;;;;;5093475;28;20446;-82
2021/05/11 11:32:25;;;;;;;8.47;7.70;;;19.20;98.50;;;;;;5092463;28;20506;-81
2021/05/11 11:34:55;;;;;;;8.37;7.60;;;19.40;98.70;;;;;;5091200;28;21016;-83
2021/05/11 11:37:36;;;;;;;8.70;7.83;;;19.70;99.40;;;;;;5083719;28;20447;-83
2021/05/11 11:40:07;;;;;;;8.13;7.43;;;20.00;97.80;;;;;;5084756;28;20462;-83
2021/05/11 11:42:55;;;;;;;;;;;;;;;;;;;;;
2021/05/11 11:45:47;;;;;;;8.20;7.50;;;20.60;97.10;;;;;;5082264;28;20571;-81
2021/05/11 11:48:36;;;;;;;8.10;7.47;;;20.80;96.30;;;;;;5079619;28;20466;-83
2021/05/11 11:51:15;;;;;;;7.63;7.03;;;21.20;95.80;;;;;;5080693;28;20471;-83
2021/05/11 11:53:46;;;;;;;6.00;5.60;;;21.40;95.50;;;;;;5080938;28;20452;-83
2021/05/11 11:56:38;;;;;;;7.43;6.90;;;21.80;95.70;;;;;;5081033;28;20816;-83
2021/05/11 11:59:04;;;;;;;6.53;5.93;;;22.00;94.10;;;;;;5082129;28;20453;-83
2021/05/11 12:01:31;;;;;;;7.30;6.80;;;22.50;94.30;;;;;;5082469;28;20450;-83
2021/05/11 12:03:58;;;;;;;6.33;5.83;;;22.50;93.10;;;;;;5082207;28;20581;-83
2021/05/11 12:06:30;;;;;;;7.00;6.50;;;22.00;92.80;;;;;;5081514;28;20449;-84
2021/05/11 12:08:56;;;;;;;7.37;6.77;;;21.50;93.90;;;;;;5082622;28;20490;-82
2021/05/11 12:11:24;;;;;;;6.70;6.10;;;21.50;94.50;;;;;;5081568;28;20913;-84
2021/05/11 12:13:50;;;;;;;6.90;6.30;;;21.50;94.50;;;;;;5080136;28;20450;-82
2021/05/11 12:16:18;;;;;;;6.10;5.57;;;21.00;94.60;;;;;;5080315;28;20497;-83
2021/05/11 12:19:03;;;;;;;5.97;5.50;;;20.70;95.20;;;;;;5082108;28;20448;-81
2021/05/11 12:21:29;;;;;;;7.07;6.37;;;20.50;95.70;;;;;;5081405;28;20467;-83
2021/05/11 12:24:07;;;;;;;6.07;5.23;;;20.60;96.00;;;;;;5081653;28;21136;-83
2021/05/11 12:26:35;;;;;;;6.17;5.63;;;20.50;95.90;;;;;;5080384;28;20455;-83
2021/05/11 12:29:09;;;;;;;4.57;4.27;;;20.40;95.80;;;;;;5079965;28;20982;-83
2021/05/11 12:31:37;;;;;;;4.30;3.90;;;20.00;96.00;;;;;;5080760;28;20499;-84
2021/05/11 12:34:08;;;;;;;3.03;2.83;;;20.00;96.80;;;;;;5081220;28;20454;-83
2021/05/11 12:36:44;;;;;;;2.70;2.50;;;20.10;96.90;;;;;;5080945;28;20519;-83
2021/05/11 12:39:34;;;;;;;3.40;2.53;;;20.30;96.90;;;;;;5080971;28;20856;-81
2021/05/11 12:42:18;;;;;;;3.40;2.83;;;20.40;96.60;;;;;;5079775;28;20472;-82
2021/05/11 12:44:45;;;;;;;2.40;2.20;;;20.60;96.40;;;;;;5078224;28;20486;-82
2021/05/11 12:47:15;;;;;;;3.40;3.20;;;20.40;96.30;;;;;;5081109;28;20552;-84
2021/05/11 12:49:41;;;;;;;2.47;2.37;;;20.40;96.10;;;;;;5081690;28;20488;-83
2021/05/11 12:52:10;;;;;;;2.80;2.60;;;20.40;96.10;;;;;;5081525;28;20482;-83
2021/05/11 12:54:44;;;;;;;3.70;3.50;;;20.30;96.50;;;;;;5082444;28;20448;-83
2021/05/11 12:57:19;;;;;;;3.60;3.17;;;20.10;96.60;;;;;;5081956;28;20444;-85
2021/05/11 12:59:58;;;;;;;3.23;2.70;;;20.00;97.00;;;;;;5080782;28;20450;-82
2021/05/11 13:02:41;;;;;;;3.13;2.83;;;20.00;97.50;;;;;;5079985;28;20514;-83
2021/05/11 13:14:03;;;;;;;3.23;2.70;;;19.00;97.80;;;;;;5080576;28;20426;-83
2021/05/11 13:16:37;;;;;;;2.83;2.67;;;18.80;98.20;;;;;;5080865;28;20456;-83
2021/05/11 13:22:17;;;;;;;3.20;3.00;;;18.20;99.50;;;;;;5054303;28;20812;-84
2021/05/11 13:27:30;;;;;;;3.07;2.83;;;17.60;99.90;;;;;;5079600;28;21007;-83
2021/05/11 13:30:07;;;;;;;3.93;3.63;;;17.60;99.90;;;;;;5079920;28;20462;-83
2021/05/11 13:32:45;;;;;;;4.23;3.77;;;17.40;99.90;;;;;;5079607;28;20499;-83
2021/05/11 13:35:12;;;;;;;3.77;3.50;;;17.00;99.90;;;;;;5079067;28;20463;-82
2021/05/11 13:37:38;;;;;;;4.03;3.83;;;16.70;99.90;;;;;;5078117;28;20466;-83
2021/05/11 13:40:06;;;;;;;4.00;3.70;;;16.50;99.90;;;;;;5079147;28;20459;-82
2021/05/11 13:42:33;;;;;;;4.73;4.43;;;16.30;99.90;;;;;;5079689;28;20911;-83
2021/05/11 13:44:59;;;;;;;5.53;5.10;;;16.20;99.90;;;;;;5079189;28;21116;-83
2021/05/11 13:47:26;;;;;;;6.13;5.73;;;16.20;99.90;;;;;;5079971;28;20477;-81
2021/05/11 13:49:56;;;;;;;7.77;7.27;;;16.10;99.90;;;;;;5078051;28;20567;-82
2021/05/11 13:52:23;;;;;;;7.10;6.57;;;15.90;99.90;;;;;;5079174;28;20511;-82
2021/05/11 13:54:53;;;;;;;7.80;7.20;;;15.90;99.90;;;;;;5080639;28;20866;-81
2021/05/11 13:57:31;;;;;;;8.70;8.00;;;15.80;99.90;;;;;;5080482;28;20455;-83
2021/05/11 14:02:48;;;;;;;8.20;7.53;;;15.40;99.90;;;;;;5079087;28;20469;-83
2021/05/11 14:05:17;;;;;;;9.33;8.23;;;15.40;99.90;;;;;;5078761;28;20490;-83
2021/05/11 14:07:44;;;;;;;8.93;8.20;;;15.50;99.90;;;;;;5079061;28;20446;-86
2021/05/11 14:10:11;;;;;;;6.97;6.47;;;15.40;99.90;;;;;;5079514;28;20461;-82
2021/05/11 14:12:37;;;;;;;8.13;6.90;;;15.20;99.90;;;;;;5079136;28;20490;-84
2021/05/11 14:15:05;;;;;;;6.10;5.60;;;15.20;99.90;;;;;;5079595;28;20447;-84
2021/05/11 14:17:35;;;;;;;8.13;7.33;;;15.10;99.90;;;;;;5080004;28;20515;-84
2021/05/11 14:20:02;;;;;;;8.47;7.23;;;15.00;99.90;;;;;;5081170;28;20443;-85
2021/05/11 14:22:29;;;;;;;9.00;8.20;;;14.80;99.90;;;;;;5081007;28;20550;-82
2021/05/11 14:24:55;;;;;;;8.57;7.70;;;14.70;99.90;;;;;;5081020;28;20494;-82
2021/05/11 14:27:23;;;;;;;7.37;6.77;;;14.70;99.90;;;;;;5081304;28;20446;-83
2021/05/11 14:29:50;;;;;;;7.00;6.40;;;14.50;99.90;;;;;;5081456;28;20569;-82
2021/05/11 14:32:16;;;;;;;8.10;7.30;;;14.30;99.90;;;;;;5079244;28;20474;-80
2021/05/11 14:34:43;;;;;;;9.23;8.30;;;14.20;99.90;;;;;;5081427;28;20447;-80
2021/05/11 14:37:09;;;;;;;8.30;7.50;;;14.10;99.90;;;;;;5087049;28;20463;-82
2021/05/11 14:39:36;;;;;;;9.20;8.40;;;14.00;99.90;;;;;;5087844;28;20451;-82
2021/05/11 14:42:02;;;;;;;8.40;7.60;;;14.10;99.90;;;;;;5087003;28;20492;-83
2021/05/11 14:44:31;;;;;;;6.80;6.20;;;14.10;99.90;;;;;;5087776;28;20467;-80
2021/05/11 14:46:57;;;;;;;7.97;7.20;;;14.10;99.90;;;;;;5087964;28;20469;-82
2021/05/11 14:49:26;;;;;;;6.57;5.97;;;14.10;99.90;;;;;;5088108;28;20452;-82
2021/05/11 14:51:52;;;;;;;11.80;10.70;;;14.00;99.90;;;;;;5087357;28;20519;-82
2021/05/11 14:54:18;;;;;;;8.87;8.00;;;13.90;99.90;;;;;;5087956;28;20538;-83
2021/05/11 14:56:49;;;;;;;10.57;9.73;;;13.90;99.90;;;;;;5088043;28;20454;-83
2021/05/11 14:59:15;;;;;;;7.57;6.83;;;13.80;99.90;;;;;;5088346;28;20774;-82
2021/05/11 15:01:42;;;;;;;7.60;6.30;;;13.80;99.90;;;;;;5087704;28;20512;-82
2021/05/11 15:04:08;;;;;;;6.93;6.33;;;13.80;99.90;;;;;;5087931;28;20474;-83
2021/05/11 15:06:34;;;;;;;8.83;7.83;;;13.70;99.90;;;;;;5088876;28;20455;-83
2021/05/11 15:09:01;;;;;;;6.70;5.90;;;13.70;99.90;;;;;;5088028;28;20477;-83
2021/05/11 15:11:27;;;;;;;5.77;5.03;;;13.60;99.90;;;;;;5087262;28;20487;-81
2021/05/11 15:13:57;;;;;;;6.67;5.70;;;13.50;99.90;;;;;;5085690;28;20447;-83
2021/05/11 15:16:24;;;;;;;5.43;4.83;;;13.40;99.90;;;;;;5086978;28;20455;-81
2021/05/11 15:18:51;;;;;;;6.10;5.60;;;13.40;99.90;;;;;;5084330;28;20988;-81
2021/05/11 15:21:17;;;;;;;8.50;7.90;;;13.30;99.90;;;;;;5083228;28;20474;-81
2021/05/11 15:23:44;;;;;;;6.63;6.17;;;13.20;99.90;;;;;;5086526;28;20457;-80
2021/05/11 15:26:12;;;;;;;7.67;7.07;;;13.20;99.90;;;;;;5086716;28;20450;-83
2021/05/11 15:28:39;;;;;;;5.43;5.00;;;13.10;99.90;;;;;;5085867;28;20435;-84
2021/05/11 15:31:07;;;;;;;4.97;4.27;;;13.10;99.90;;;;;;5087289;28;20535;-81
2021/05/11 15:33:33;;;;;;;4.27;3.97;;;13.00;99.90;;;;;;5086494;28;20474;-83
2021/05/11 15:36:00;;;;;;;3.50;2.57;;;13.00;99.90;;;;;;5086747;28;20510;-82
2021/05/11 15:38:29;;;;;;;2.70;2.50;;;12.90;99.90;;;;;;5086399;28;20526;-81
2021/05/11 15:40:56;;;;;;;3.20;3.00;;;12.90;99.90;;;;;;5086102;28;20467;-82
2021/05/11 15:43:24;;;;;;;2.60;2.40;;;12.90;99.90;;;;;;5086101;28;20476;-81
2021/05/11 15:45:50;;;;;;;3.33;3.07;;;12.90;99.90;;;;;;5091336;28;20490;-80
2021/05/11 15:48:18;;;;;;;3.27;1.80;;;12.90;99.90;;;;;;5086418;28;20567;-81
2021/05/11 15:50:45;;;;;;;2.40;2.23;;;12.90;99.90;;;;;;5080547;28;20551;-80
2021/05/11 15:53:14;;;;;;;3.50;2.00;;;12.90;99.90;;;;;;5079752;28;20537;-82
2021/05/11 15:55:41;;;;;;;3.13;2.33;;;12.90;99.90;;;;;;5079836;28;20447;-82
2021/05/11 15:58:09;;;;;;;2.40;1.83;;;12.90;99.90;;;;;;5079964;28;20451;-81
2021/05/11 16:00:37;;;;;;;1.20;1.00;;;13.00;99.90;;;;;;5080217;28;20478;-81
2021/05/11 16:03:04;;;;;;;2.17;1.53;;;13.10;99.90;;;;;;5082762;28;20886;-82
2021/05/11 16:05:34;;;;;;;0.90;0.90;;;13.10;99.90;;;;;;5082482;28;20539;-81
2021/05/11 16:08:01;;;;;;;1.33;1.23;;;13.20;99.90;;;;;;5080679;28;20459;-82
2021/05/11 16:10:28;;;;;;;1.30;1.20;;;13.20;99.90;;;;;;5080268;28;20459;-82
2021/05/11 16:12:55;;;;;;;1.63;1.53;;;13.20;99.90;;;;;;5079225;28;20469;-82
2021/05/11 16:15:22;;;;;;;1.10;1.00;;;13.20;99.90;;;;;;5080078;28;20952;-81